Denver, Illinois
Current Conditions -  °F | °C
As of 8:15 AM on Thursday 29 Jan 2015 (Local Time) from KMQB Reporting Station
Overcast Overcast  
Wind Chill: 23°   Ceiling: 1500
Heat Index: 35°   Visibility: 7mi
Dew Point: 32°   Wind: 25mph
Humidity: 88%   Direction: 310°NW
Pressure: 30.02"   Gusts: 36mph
Location:  40.4155°N, 91.0269°W
Report Text: KMQB 291415Z AUTO 31022G31KT 7SM OVC015 02/00 A3002 RMK AO2 T00171001
Loading
Personal Weather Stations






























Interactive Weather Map New forecast layout! Learn more

10-Day Weather Forecast

Advertisements
Track Severe Weather on mobile